createdAt,value
2022-09-23T00:01:23.135Z,0.75
2022-09-23T00:06:30.972Z,0.60
2022-09-23T00:08:57.698Z,0.60
2022-09-23T00:11:26.376Z,5.93
2022-09-23T00:13:57.631Z,0.98
2022-09-23T00:16:26.775Z,0.70
2022-09-23T00:18:53.518Z,1.30
2022-09-23T00:21:20.554Z,1.02
2022-09-23T00:23:47.402Z,6.90
2022-09-23T00:28:49.595Z,0.80
2022-09-23T00:34:24.149Z,3.85
2022-09-23T00:36:50.869Z,0.80
2022-09-23T00:47:55.982Z,0.77
2022-09-23T00:50:29.930Z,6.85
2022-09-23T00:52:57.987Z,2.00
2022-09-23T00:55:32.030Z,6.28
2022-09-23T00:57:59.269Z,2.67
2022-09-23T01:00:25.982Z,1.40
2022-09-23T01:02:53.045Z,1.27
2022-09-23T01:05:19.870Z,1.75
2022-09-23T01:07:49.720Z,1.05
2022-09-23T01:13:42.587Z,1.63
2022-09-23T01:16:12.415Z,2.00
2022-09-23T01:19:01.684Z,2.60
2022-09-23T01:22:16.737Z,1.52
2022-09-23T01:24:53.355Z,1.33
2022-09-23T01:27:56.775Z,1.42
2022-09-23T01:30:47.939Z,1.48
2022-09-23T01:33:20.587Z,2.10
2022-09-23T01:38:30.327Z,1.20
2022-09-23T01:41:30.453Z,1.33
2022-09-23T01:44:02.680Z,3.00
2022-09-23T01:46:37.978Z,1.38
2022-09-23T01:49:20.402Z,1.25
2022-09-23T01:51:53.046Z,1.25
2022-09-23T01:57:09.615Z,1.48
2022-09-23T01:59:57.883Z,1.55
2022-09-23T02:02:30.999Z,1.35
2022-09-23T02:05:13.456Z,1.20
2022-09-23T02:08:16.828Z,1.45
2022-09-23T02:13:22.289Z,1.00
2022-09-23T02:15:51.085Z,1.25
2022-09-23T02:18:21.841Z,1.77
2022-09-23T02:20:48.549Z,1.30
2022-09-23T02:23:23.323Z,1.27
2022-09-23T02:26:09.003Z,2.38
2022-09-23T02:28:45.777Z,1.20
2022-09-23T02:31:28.069Z,2.05
2022-09-23T02:33:57.697Z,1.15
2022-09-23T02:36:24.378Z,1.95
2022-09-23T02:38:53.953Z,1.17
2022-09-23T02:41:23.527Z,2.10
2022-09-23T02:43:59.187Z,1.70
2022-09-23T02:46:26.066Z,1.92
2022-09-23T02:48:58.902Z,1.88
2022-09-23T02:51:25.675Z,1.25
2022-09-23T02:53:54.555Z,2.17
2022-09-23T02:56:21.308Z,1.30
2022-09-23T02:58:49.004Z,1.02
2022-09-23T03:01:15.738Z,1.85
2022-09-23T03:04:15.016Z,1.80
2022-09-23T03:07:03.620Z,2.53
2022-09-23T03:09:38.688Z,1.50
2022-09-23T03:12:09.936Z,1.40
2022-09-23T03:14:52.806Z,1.40
2022-09-23T03:19:57.446Z,3.13
2022-09-23T03:22:46.060Z,1.42
2022-09-23T03:27:50.661Z,2.95
2022-09-23T03:32:52.859Z,1.48
2022-09-23T03:35:19.571Z,1.70
2022-09-23T03:37:57.788Z,2.22
2022-09-23T03:42:59.991Z,1.45
2022-09-23T03:45:28.932Z,1.83
2022-09-23T03:47:55.684Z,2.50
2022-09-23T03:50:22.411Z,1.33
2022-09-23T03:52:52.544Z,2.08
2022-09-23T03:55:21.904Z,1.45
2022-09-23T03:57:48.763Z,1.00
2022-09-23T04:00:15.973Z,2.83
2022-09-23T04:02:42.907Z,1.17
2022-09-23T04:05:10.480Z,1.35
2022-09-23T04:07:37.386Z,1.02
2022-09-23T04:10:05.262Z,1.90
2022-09-23T04:12:35.036Z,1.63
2022-09-23T04:15:01.906Z,2.55
2022-09-23T04:17:28.675Z,1.83
2022-09-23T04:19:55.403Z,1.52
2022-09-23T04:22:22.107Z,1.85
2022-09-23T04:24:48.885Z,1.40
2022-09-23T04:27:18.459Z,2.05
2022-09-23T04:32:23.249Z,1.88
2022-09-23T04:37:25.429Z,1.38
2022-09-23T04:39:52.157Z,2.00
2022-09-23T04:42:22.189Z,1.33
2022-09-23T04:44:49.019Z,1.95
2022-09-23T04:47:15.793Z,7.22
2022-09-23T04:49:42.558Z,2.67
2022-09-23T04:52:09.343Z,1.85
2022-09-23T04:54:36.155Z,2.03
2022-09-23T04:57:05.707Z,2.00
2022-09-23T04:59:35.811Z,2.08
2022-09-23T05:02:02.689Z,1.92
2022-09-23T05:04:29.650Z,2.00
2022-09-23T05:06:59.498Z,2.17
2022-09-23T05:09:33.248Z,11.05
2022-09-23T05:12:00.251Z,3.22
2022-09-23T05:14:27.438Z,2.72
2022-09-23T05:16:54.233Z,2.10
2022-09-23T05:19:21.074Z,2.80
2022-09-23T05:21:47.970Z,1.55
2022-09-23T05:24:17.980Z,2.35
2022-09-23T05:26:44.720Z,2.63
2022-09-23T05:33:20.905Z,2.00
2022-09-23T05:41:59.928Z,3.40
2022-09-23T05:44:26.966Z,3.90
2022-09-23T05:46:55.685Z,3.28
2022-09-23T05:49:33.018Z,3.80
2022-09-23T05:52:09.090Z,2.97
2022-09-23T05:54:36.548Z,5.03
2022-09-23T05:57:05.002Z,2.58
2022-09-23T05:59:32.066Z,3.15
2022-09-23T06:01:58.823Z,3.10
2022-09-23T06:04:25.511Z,3.17
2022-09-23T06:06:52.301Z,2.63
2022-09-23T06:09:19.054Z,4.03
2022-09-23T06:11:45.756Z,4.25
2022-09-23T06:14:13.086Z,4.65
2022-09-23T06:16:39.790Z,5.13
2022-09-23T06:19:07.152Z,3.30
2022-09-23T06:21:38.296Z,3.85
2022-09-23T06:24:05.616Z,3.42
2022-09-23T06:26:32.526Z,2.38
2022-09-23T06:31:34.595Z,2.95
2022-09-23T06:34:12.213Z,5.50
2022-09-23T06:36:45.755Z,2.85
2022-09-23T06:39:14.503Z,4.07
2022-09-23T06:41:41.310Z,4.32
2022-09-23T06:44:08.115Z,3.90
2022-09-23T06:46:41.071Z,4.57
2022-09-23T06:49:07.840Z,5.80
2022-09-23T06:51:34.493Z,4.43
2022-09-23T06:54:01.172Z,7.13
2022-09-23T06:56:27.885Z,4.60
2022-09-23T06:58:54.541Z,4.32
2022-09-23T07:01:21.367Z,4.30
2022-09-23T07:03:48.221Z,5.75
2022-09-23T07:06:15.060Z,5.82
2022-09-23T07:08:45.352Z,5.25
2022-09-23T07:11:12.078Z,3.65
2022-09-23T07:13:39.222Z,3.83
2022-09-23T07:16:06.155Z,4.35
2022-09-23T07:18:36.798Z,4.30
2022-09-23T07:21:11.828Z,4.90
2022-09-23T07:23:38.517Z,6.05
2022-09-23T07:26:05.649Z,3.55
2022-09-23T07:28:32.352Z,4.97
2022-09-23T07:31:35.449Z,4.57
2022-09-23T07:34:05.045Z,4.90
2022-09-23T07:36:31.790Z,4.38
2022-09-23T07:38:59.233Z,4.07
2022-09-23T07:41:26.202Z,4.78
2022-09-23T07:43:53.552Z,4.15
2022-09-23T07:46:20.298Z,4.88
2022-09-23T07:48:47.005Z,4.03
2022-09-23T07:51:18.749Z,4.85
2022-09-23T07:53:47.584Z,4.57
2022-09-23T07:56:14.339Z,4.40
2022-09-23T07:58:41.093Z,4.10
2022-09-23T08:01:09.399Z,4.28
2022-09-23T08:03:36.618Z,3.28
2022-09-23T08:06:08.169Z,2.42
2022-09-23T08:08:35.091Z,2.85
2022-09-23T08:11:05.244Z,2.28
2022-09-23T08:13:32.792Z,3.50
2022-09-23T08:15:59.734Z,2.13
2022-09-23T08:18:26.598Z,1.52
2022-09-23T08:20:53.401Z,1.23
2022-09-23T08:23:20.149Z,2.15
2022-09-23T08:25:47.137Z,1.52
2022-09-23T08:28:17.193Z,2.17
2022-09-23T08:30:44.537Z,2.53
2022-09-23T08:33:11.872Z,1.20
2022-09-23T08:35:38.584Z,1.70
2022-09-23T08:38:08.560Z,2.80
2022-09-23T08:40:39.422Z,1.20
2022-09-23T08:43:07.136Z,1.10
2022-09-23T08:45:34.266Z,2.50
2022-09-23T08:48:03.918Z,1.67
2022-09-23T08:50:42.330Z,2.17
2022-09-23T08:53:16.210Z,2.08
2022-09-23T08:55:46.572Z,2.40
2022-09-23T08:58:32.014Z,3.10
2022-09-23T09:01:10.157Z,2.35
2022-09-23T09:04:19.306Z,3.80
2022-09-23T09:07:24.493Z,2.75
2022-09-23T09:10:12.178Z,2.58
2022-09-23T09:12:52.588Z,3.65
2022-09-23T09:15:27.993Z,2.75
2022-09-23T09:18:12.895Z,2.58
2022-09-23T09:20:49.167Z,4.40
2022-09-23T09:26:48.746Z,2.67
2022-09-23T09:29:34.700Z,2.97
2022-09-23T09:32:20.540Z,3.20
2022-09-23T09:34:53.797Z,3.13
2022-09-23T09:37:36.087Z,2.78
2022-09-23T09:40:03.029Z,3.67
2022-09-23T09:42:40.327Z,3.83
2022-09-23T09:45:25.403Z,4.00
2022-09-23T09:48:02.421Z,5.10
2022-09-23T09:50:52.252Z,3.25
2022-09-23T09:53:25.677Z,3.58
2022-09-23T09:56:14.978Z,3.35
2022-09-23T09:58:47.929Z,6.55
2022-09-23T10:01:27.218Z,3.35
2022-09-23T10:06:44.448Z,5.50
2022-09-23T10:09:16.958Z,5.82
2022-09-23T10:11:43.842Z,6.28
2022-09-23T10:14:15.923Z,6.43
2022-09-23T10:16:42.727Z,6.78
2022-09-23T10:19:24.925Z,7.00
2022-09-23T10:21:56.531Z,7.93
2022-09-23T10:24:25.361Z,7.47
2022-09-23T10:26:56.051Z,8.18
2022-09-23T10:29:53.352Z,13.73
2022-09-23T10:32:36.093Z,7.93
2022-09-23T10:35:08.836Z,7.90
2022-09-23T10:37:38.814Z,7.28
2022-09-23T10:40:12.071Z,12.23
2022-09-23T10:42:59.969Z,8.77
2022-09-23T10:45:27.494Z,8.77
2022-09-23T10:48:00.282Z,8.55
2022-09-23T10:50:47.685Z,8.88
2022-09-23T10:53:38.479Z,7.88
2022-09-23T10:56:26.661Z,7.88
2022-09-23T10:59:31.237Z,8.43
2022-09-23T11:02:03.916Z,8.60
2022-09-23T11:07:37.508Z,7.15
2022-09-23T11:10:44.884Z,7.75
2022-09-23T11:13:31.038Z,8.15
2022-09-23T11:16:23.432Z,6.10
2022-09-23T11:19:05.303Z,6.60
2022-09-23T11:21:50.964Z,6.53
2022-09-23T11:24:35.642Z,5.78
2022-09-23T11:27:23.773Z,6.38
2022-09-23T11:30:09.550Z,6.57
2022-09-23T11:32:58.916Z,6.53
2022-09-23T11:35:46.499Z,5.35
2022-09-23T11:38:21.495Z,6.28
2022-09-23T11:40:48.373Z,6.47
2022-09-23T11:43:22.904Z,6.40
2022-09-23T11:46:15.378Z,8.48
2022-09-23T11:48:48.235Z,7.30
2022-09-23T11:51:16.895Z,5.20
2022-09-23T11:53:51.645Z,6.28
2022-09-23T11:56:34.117Z,3.75
2022-09-23T11:59:17.624Z,4.55
2022-09-23T12:01:47.199Z,6.35
2022-09-23T12:04:31.604Z,4.88
2022-09-23T12:07:12.323Z,4.80
2022-09-23T12:09:57.613Z,5.65
2022-09-23T12:12:51.718Z,6.22
2022-09-23T12:15:33.501Z,5.63
2022-09-23T12:18:08.723Z,3.30
2022-09-23T12:20:58.540Z,3.33
2022-09-23T12:23:41.424Z,3.28
2022-09-23T12:26:08.854Z,4.20
2022-09-23T12:28:40.430Z,3.60
2022-09-23T12:31:12.695Z,2.72
2022-09-23T12:33:39.482Z,1.63
2022-09-23T12:36:07.614Z,1.67
2022-09-23T12:38:53.754Z,2.35
2022-09-23T12:41:23.449Z,1.00
2022-09-23T12:43:51.952Z,3.50
2022-09-23T12:46:28.021Z,3.13
2022-09-23T12:48:54.723Z,3.03
2022-09-23T12:51:21.447Z,4.57
2022-09-23T12:53:48.094Z,2.45
2022-09-23T12:56:16.800Z,3.30
2022-09-23T12:58:45.606Z,3.47
2022-09-23T13:01:15.210Z,3.40
2022-09-23T13:03:51.343Z,2.97
2022-09-23T13:06:18.083Z,2.53
2022-09-23T13:08:45.369Z,2.65
2022-09-23T13:11:29.006Z,3.78
2022-09-23T13:13:59.128Z,3.45
2022-09-23T13:16:26.008Z,4.40
2022-09-23T13:18:56.018Z,5.30
2022-09-23T13:21:44.510Z,4.88
2022-09-23T13:24:17.404Z,3.28
2022-09-23T13:26:52.956Z,2.72
2022-09-23T13:29:25.766Z,5.22
2022-09-23T13:31:52.656Z,2.15
2022-09-23T13:34:21.681Z,2.70
2022-09-23T13:36:49.080Z,3.70
2022-09-23T13:39:26.670Z,2.83
2022-09-23T13:41:55.023Z,1.85
2022-09-23T13:44:21.855Z,2.47
2022-09-23T13:46:52.808Z,1.35
2022-09-23T13:49:24.697Z,1.25
2022-09-23T13:51:55.513Z,3.97
2022-09-23T13:54:36.413Z,0.52
2022-09-23T13:57:03.449Z,2.30
2022-09-23T13:59:33.856Z,2.10
2022-09-23T14:02:13.367Z,0.82
2022-09-23T14:04:40.303Z,0.88
2022-09-23T14:07:16.309Z,3.80
2022-09-23T14:09:49.639Z,3.30
2022-09-23T14:12:16.376Z,1.42
2022-09-23T14:14:43.081Z,1.65
2022-09-23T14:17:09.760Z,1.73
2022-09-23T14:19:43.923Z,2.20
2022-09-23T14:22:29.682Z,2.85
2022-09-23T14:24:56.534Z,1.50
2022-09-23T14:27:28.975Z,2.70
2022-09-23T14:32:23.329Z,3.38
2022-09-23T14:35:02.006Z,1.90
2022-09-23T14:37:29.959Z,3.42
2022-09-23T14:39:57.897Z,2.70
2022-09-23T14:42:24.676Z,3.03
2022-09-23T14:44:51.399Z,1.92
2022-09-23T14:47:18.095Z,1.98
2022-09-23T14:49:48.819Z,2.25
2022-09-23T14:52:15.517Z,5.60
2022-09-23T14:54:48.273Z,4.90
2022-09-23T14:57:25.526Z,4.38
2022-09-23T14:59:59.664Z,5.40
2022-09-23T15:02:40.014Z,6.60
2022-09-23T15:05:13.929Z,6.38
2022-09-23T15:07:40.651Z,5.70
2022-09-23T15:10:08.728Z,4.72
2022-09-23T15:12:35.616Z,5.75
2022-09-23T15:15:02.377Z,4.22
2022-09-23T15:17:35.716Z,5.03
2022-09-23T15:20:17.263Z,7.65
2022-09-23T15:22:49.381Z,4.30
2022-09-23T15:25:18.654Z,4.95
2022-09-23T15:28:02.678Z,3.42
2022-09-23T15:30:29.592Z,7.20
2022-09-23T15:33:13.696Z,5.07
2022-09-23T15:35:42.579Z,7.97
2022-09-23T15:38:09.302Z,6.40
2022-09-23T15:40:36.801Z,8.68
2022-09-23T15:43:20.709Z,7.68
2022-09-23T15:45:52.764Z,5.82
2022-09-23T15:48:21.316Z,7.00
2022-09-23T15:50:48.551Z,4.15
2022-09-23T15:53:17.156Z,4.65
2022-09-23T15:55:43.909Z,5.78
2022-09-23T15:58:10.894Z,4.80
2022-09-23T16:00:37.656Z,3.15
2022-09-23T16:03:04.878Z,2.78
2022-09-23T16:05:34.630Z,2.65
2022-09-23T16:08:05.022Z,4.68
2022-09-23T16:10:35.379Z,7.72
2022-09-23T16:13:02.934Z,6.13
2022-09-23T16:15:30.775Z,4.78
2022-09-23T16:17:58.133Z,5.93
2022-09-23T16:20:25.814Z,5.60
2022-09-23T16:23:27.551Z,8.52
2022-09-23T16:25:54.303Z,4.82
2022-09-23T16:28:20.966Z,5.28
2022-09-23T16:30:47.767Z,6.18
2022-09-23T16:33:14.554Z,6.32
2022-09-23T16:35:41.306Z,7.50
2022-09-23T16:38:08.854Z,3.90
2022-09-23T16:40:35.585Z,4.72
2022-09-23T16:43:02.502Z,5.43
2022-09-23T16:45:29.262Z,5.75
2022-09-23T16:47:55.997Z,7.18
2022-09-23T16:50:23.455Z,6.97
2022-09-23T16:52:52.294Z,5.40
2022-09-23T16:55:19.074Z,6.40
2022-09-23T16:57:45.818Z,5.43
2022-09-23T17:00:14.468Z,4.55
2022-09-23T17:02:41.471Z,9.02
2022-09-23T17:05:08.585Z,5.18
2022-09-23T17:07:35.326Z,8.65
2022-09-23T17:10:02.270Z,7.35
2022-09-23T17:12:32.226Z,4.70
2022-09-23T17:14:58.908Z,6.88
2022-09-23T17:17:25.579Z,4.18
2022-09-23T17:19:52.227Z,3.95
2022-09-23T17:22:19.252Z,4.28
2022-09-23T17:24:46.070Z,6.05
2022-09-23T17:27:12.939Z,3.25
2022-09-23T17:29:39.985Z,4.25
2022-09-23T17:32:06.698Z,3.33
2022-09-23T17:34:33.693Z,3.28
2022-09-23T17:37:00.875Z,2.80
2022-09-23T17:39:27.539Z,3.95
2022-09-23T17:41:54.229Z,3.30
2022-09-23T17:44:20.956Z,1.60
2022-09-23T17:46:47.819Z,2.75
2022-09-23T17:49:14.524Z,2.75
2022-09-23T17:51:41.471Z,3.85
2022-09-23T17:54:08.224Z,2.92
2022-09-23T17:56:34.974Z,2.65
2022-09-23T17:59:01.827Z,2.47
2022-09-23T18:01:28.691Z,2.28
2022-09-23T18:03:56.405Z,2.50
2022-09-23T18:06:24.375Z,2.72
2022-09-23T18:08:51.306Z,2.15
2022-09-23T18:11:25.400Z,2.60
2022-09-23T18:13:56.441Z,1.92
2022-09-23T18:16:25.418Z,2.30
2022-09-23T18:18:59.618Z,1.48
2022-09-23T18:21:28.442Z,1.58
2022-09-23T18:23:59.803Z,1.67
2022-09-23T18:26:33.536Z,1.35
2022-09-23T18:34:53.668Z,0.60
2022-09-23T18:37:20.431Z,0.73
2022-09-23T18:42:32.062Z,0.65
2022-09-23T18:44:58.844Z,0.75
2022-09-23T18:47:25.546Z,0.52
2022-09-23T18:49:54.837Z,1.65
2022-09-23T18:55:43.873Z,1.33
2022-09-23T18:58:10.548Z,0.30
2022-09-23T19:00:37.276Z,0.50
2022-09-23T19:03:04.218Z,0.70
2022-09-23T19:05:33.516Z,1.65
2022-09-23T19:08:00.282Z,1.13
2022-09-23T19:10:26.954Z,0.65
2022-09-23T19:12:53.687Z,0.80
2022-09-23T19:15:20.443Z,0.93
2022-09-23T19:17:47.127Z,0.60
2022-09-23T19:20:13.801Z,0.90
2022-09-23T19:22:40.515Z,1.63
2022-09-23T19:25:07.870Z,0.40
2022-09-23T19:27:34.651Z,1.08
2022-09-23T19:30:04.279Z,0.60
2022-09-23T19:32:31.016Z,1.95
2022-09-23T19:34:57.701Z,1.23
2022-09-23T19:37:24.416Z,2.25
2022-09-23T19:39:51.074Z,1.20
2022-09-23T19:42:17.817Z,2.33
2022-09-23T19:44:44.464Z,0.43
2022-09-23T19:47:14.321Z,0.82
2022-09-23T19:49:41.140Z,0.95
2022-09-23T19:52:07.822Z,1.48
2022-09-23T19:54:34.508Z,1.40
2022-09-23T19:57:01.222Z,0.40
2022-09-23T19:59:27.910Z,1.88
2022-09-23T20:01:54.773Z,0.82
2022-09-23T20:04:21.775Z,0.95
2022-09-23T20:06:48.460Z,0.45
2022-09-23T20:09:15.164Z,0.65
2022-09-23T20:11:41.898Z,1.13
2022-09-23T20:14:10.317Z,0.55
2022-09-23T20:16:37.428Z,0.60
2022-09-23T20:19:04.629Z,0.57
2022-09-23T20:21:31.908Z,1.10
2022-09-23T20:23:58.946Z,0.75
2022-09-23T20:26:25.759Z,1.08
2022-09-23T20:28:52.680Z,1.10
2022-09-23T20:31:19.721Z,0.65
2022-09-23T20:33:50.773Z,0.63
2022-09-23T20:36:20.279Z,0.40
2022-09-23T20:38:46.997Z,0.90
2022-09-23T20:41:13.661Z,1.02
2022-09-23T20:43:40.523Z,0.73
2022-09-23T20:46:07.242Z,1.52
2022-09-23T20:48:34.027Z,0.70
2022-09-23T20:51:04.728Z,0.77
2022-09-23T20:53:31.550Z,0.95
2022-09-23T20:55:58.406Z,1.48
2022-09-23T20:58:29.455Z,0.35
2022-09-23T21:01:06.791Z,1.10
2022-09-23T21:03:33.527Z,0.32
2022-09-23T21:06:01.428Z,1.23
2022-09-23T21:08:28.101Z,0.90
2022-09-23T21:10:58.625Z,2.05
2022-09-23T21:13:25.315Z,1.50
2022-09-23T21:15:52.084Z,0.88
2022-09-23T21:18:22.393Z,1.38
2022-09-23T21:20:58.982Z,1.52
2022-09-23T21:23:26.905Z,0.60
2022-09-23T21:26:00.414Z,1.45
2022-09-23T21:28:30.139Z,0.73
2022-09-23T21:31:11.122Z,4.80
2022-09-23T21:33:37.836Z,0.95
2022-09-23T21:36:05.886Z,2.35
2022-09-23T21:38:38.195Z,1.40
2022-09-23T21:41:06.721Z,0.73
2022-09-23T21:43:34.633Z,1.17
2022-09-23T21:46:02.865Z,0.85
2022-09-23T21:48:30.374Z,0.45
2022-09-23T21:50:58.377Z,0.63
2022-09-23T21:53:25.350Z,0.85
2022-09-23T21:55:52.360Z,1.83
2022-09-23T21:58:19.058Z,0.63
2022-09-23T22:00:45.863Z,0.60
2022-09-23T22:03:12.687Z,0.55
2022-09-23T22:05:39.378Z,1.52
2022-09-23T22:08:06.070Z,3.90
2022-09-23T22:10:32.726Z,0.68
2022-09-23T22:12:59.433Z,0.95
2022-09-23T22:15:26.090Z,1.30
2022-09-23T22:17:53.669Z,2.92
2022-09-23T22:20:20.339Z,1.50
2022-09-23T22:22:47.031Z,0.47
2022-09-23T22:25:13.857Z,1.38
2022-09-23T22:27:40.596Z,0.40
2022-09-23T22:30:09.416Z,3.97
2022-09-23T22:32:36.107Z,0.20
2022-09-23T22:35:03.056Z,0.38
2022-09-23T22:37:31.582Z,0.77
2022-09-23T22:39:58.305Z,2.58
2022-09-23T22:42:24.992Z,0.13
2022-09-23T22:44:51.833Z,1.23
2022-09-23T22:47:19.234Z,1.20
2022-09-23T22:49:46.446Z,1.10
2022-09-23T22:52:13.253Z,0.80
2022-09-23T22:54:39.935Z,0.95
2022-09-23T22:57:07.349Z,0.68
2022-09-23T22:59:34.319Z,0.40
2022-09-23T23:02:01.269Z,5.13
2022-09-23T23:04:28.258Z,0.85
2022-09-23T23:06:55.065Z,1.38
2022-09-23T23:09:21.749Z,1.13
2022-09-23T23:11:48.418Z,1.27
2022-09-23T23:14:16.609Z,0.75
2022-09-23T23:16:44.037Z,0.60
2022-09-23T23:19:12.118Z,1.80
2022-09-23T23:21:38.972Z,0.45
2022-09-23T23:24:06.426Z,2.33
2022-09-23T23:26:33.705Z,0.30
2022-09-23T23:29:00.868Z,0.35
2022-09-23T23:31:28.628Z,0.63
2022-09-23T23:33:55.377Z,1.80
2022-09-23T23:36:22.747Z,0.65
2022-09-23T23:38:50.312Z,0.40
2022-09-23T23:41:18.596Z,0.60
2022-09-23T23:43:46.080Z,0.80
2022-09-23T23:46:13.586Z,0.65
2022-09-23T23:48:40.586Z,2.22
2022-09-23T23:51:08.198Z,0.80
2022-09-23T23:53:36.876Z,0.55
2022-09-23T23:56:08.785Z,3.00
2022-09-23T23:58:35.580Z,0.30
